JBU223 KLAS-KLAX
Flight info
| Callsign | JBU223 |
|---|---|
| Flight time | 0h 45m |
| Altitude | 22000 |
| Route | RADYR2 BLAQQ SHTNR ANJLL4 |
| Aircraft | A320/M-SDE3FGHIRWY/LB1 |
Departure
| Time | 2026-05-05 03:01 |
|---|---|
| Airport | Harry Reid International Airport (KLAS) |
Arrival
| Time | 2026-05-05 03:46 |
|---|---|
| Airport | Los Angeles International Airport (KLAX) |
| Time | Latitude | Longitude | Altitude | Speed | Heading |
|---|---|---|---|---|---|
| 2026-05-05 02:21 | 36.08232 | -115.15264 | 2121 ft | 0 kts | 356° |
| 2026-05-05 02:37 | 36.08213 | -115.15263 | 2122 ft | 4 kts | 5° |
| 2026-05-05 02:37 | 36.08186 | -115.15269 | 2124 ft | 4 kts | 19° |
| 2026-05-05 02:37 | 36.08162 | -115.15281 | 2125 ft | 4 kts | 27° |
| 2026-05-05 02:37 | 36.08153 | -115.15286 | 2123 ft | 0 kts | 27° |
| 2026-05-05 02:42 | 36.08153 | -115.15287 | 2123 ft | 0 kts | 27° |
| 2026-05-05 02:49 | 36.08159 | -115.15268 | 2122 ft | 5 kts | 82° |
| 2026-05-05 02:49 | 36.08137 | -115.15218 | 2122 ft | 9 kts | 147° |
| 2026-05-05 02:49 | 36.08084 | -115.15164 | 2124 ft | 11 kts | 127° |
| 2026-05-05 02:50 | 36.08019 | -115.15112 | 2127 ft | 12 kts | 186° |
| 2026-05-05 02:50 | 36.07931 | -115.15110 | 2126 ft | 14 kts | 178° |
| 2026-05-05 02:50 | 36.07827 | -115.15072 | 2127 ft | 18 kts | 140° |
| 2026-05-05 02:50 | 36.07793 | -115.14932 | 2126 ft | 19 kts | 95° |
| 2026-05-05 02:51 | 36.07780 | -115.14768 | 2122 ft | 19 kts | 94° |
| 2026-05-05 02:51 | 36.07772 | -115.14616 | 2119 ft | 20 kts | 95° |
| 2026-05-05 02:51 | 36.07759 | -115.14437 | 2121 ft | 22 kts | 95° |
| 2026-05-05 02:51 | 36.07753 | -115.14237 | 2120 ft | 25 kts | 89° |
| 2026-05-05 02:52 | 36.07753 | -115.14052 | 2121 ft | 21 kts | 90° |
| 2026-05-05 02:52 | 36.07753 | -115.13868 | 2125 ft | 22 kts | 90° |
| 2026-05-05 02:52 | 36.07752 | -115.13670 | 2125 ft | 22 kts | 90° |
| 2026-05-05 02:52 | 36.07753 | -115.13466 | 2127 ft | 25 kts | 90° |
| 2026-05-05 02:53 | 36.07754 | -115.13241 | 2124 ft | 21 kts | 88° |
| 2026-05-05 02:53 | 36.07754 | -115.13036 | 2122 ft | 26 kts | 90° |
| 2026-05-05 02:53 | 36.07754 | -115.12909 | 2122 ft | 2 kts | 90° |
| 2026-05-05 02:53 | 36.07754 | -115.12883 | 2122 ft | 5 kts | 90° |
| 2026-05-05 02:54 | 36.07754 | -115.12815 | 2120 ft | 11 kts | 89° |
| 2026-05-05 02:54 | 36.07754 | -115.12699 | 2118 ft | 16 kts | 92° |
| 2026-05-05 02:54 | 36.07755 | -115.12551 | 2119 ft | 15 kts | 89° |
| 2026-05-05 02:54 | 36.07755 | -115.12424 | 2121 ft | 14 kts | 90° |
| 2026-05-05 02:55 | 36.07755 | -115.12291 | 2121 ft | 18 kts | 90° |
| 2026-05-05 02:55 | 36.07746 | -115.12144 | 2122 ft | 12 kts | 134° |
| 2026-05-05 02:55 | 36.07742 | -115.12140 | 2124 ft | 0 kts | 142° |
| 2026-05-05 02:57 | 36.07741 | -115.12139 | 2124 ft | 0 kts | 142° |
| 2026-05-05 02:57 | 36.07737 | -115.12136 | 2124 ft | 1 kts | 142° |
| 2026-05-05 02:57 | 36.07731 | -115.12133 | 2124 ft | 1 kts | 156° |
| 2026-05-05 02:58 | 36.07719 | -115.12126 | 2123 ft | 2 kts | 156° |
| 2026-05-05 02:58 | 36.07712 | -115.12125 | 2123 ft | 0 kts | 166° |
| 2026-05-05 02:58 | 36.07712 | -115.12124 | 2123 ft | 0 kts | 166° |
| 2026-05-05 02:58 | 36.07708 | -115.12125 | 2124 ft | 1 kts | 177° |
| 2026-05-05 02:59 | 36.07691 | -115.12123 | 2124 ft | 4 kts | 177° |
| 2026-05-05 02:59 | 36.07658 | -115.12132 | 2125 ft | 6 kts | 210° |
| 2026-05-05 02:59 | 36.07642 | -115.12198 | 2125 ft | 11 kts | 273° |
| 2026-05-05 02:59 | 36.07644 | -115.12318 | 2122 ft | 15 kts | 270° |
| 2026-05-05 03:00 | 36.07641 | -115.12597 | 2123 ft | 64 kts | 270° |
| 2026-05-05 03:00 | 36.07641 | -115.13384 | 2123 ft | 117 kts | 270° |
| 2026-05-05 03:00 | 36.07639 | -115.14571 | 2127 ft | 158 kts | 271° |
| 2026-05-05 03:00 | 36.07641 | -115.16008 | 2420 ft | 172 kts | 266° |
| 2026-05-05 03:01 | 36.07616 | -115.17521 | 2992 ft | 178 kts | 263° |
| 2026-05-05 03:01 | 36.07586 | -115.19038 | 3690 ft | 173 kts | 265° |
| 2026-05-05 03:01 | 36.07589 | -115.20505 | 4366 ft | 168 kts | 266° |
| 2026-05-05 03:01 | 36.07624 | -115.21933 | 4990 ft | 164 kts | 268° |
| 2026-05-05 03:02 | 36.07689 | -115.23326 | 5582 ft | 160 kts | 268° |
| 2026-05-05 03:02 | 36.07570 | -115.24673 | 6000 ft | 162 kts | 238° |
| 2026-05-05 03:02 | 36.06772 | -115.25766 | 6164 ft | 184 kts | 219° |
| 2026-05-05 03:02 | 36.05593 | -115.26608 | 6337 ft | 209 kts | 203° |
| 2026-05-05 03:03 | 36.04124 | -115.27189 | 6571 ft | 234 kts | 200° |
| 2026-05-05 03:03 | 36.02509 | -115.27880 | 6960 ft | 254 kts | 201° |
| 2026-05-05 03:03 | 36.00823 | -115.28639 | 7675 ft | 261 kts | 201° |
| 2026-05-05 03:03 | 35.99092 | -115.29392 | 7961 ft | 264 kts | 195° |
| 2026-05-05 03:04 | 35.97278 | -115.29857 | 8520 ft | 267 kts | 193° |
| 2026-05-05 03:04 | 35.95457 | -115.30308 | 9440 ft | 268 kts | 191° |
| 2026-05-05 03:04 | 35.93615 | -115.30766 | 10194 ft | 272 kts | 191° |
| 2026-05-05 03:04 | 35.91702 | -115.31239 | 10524 ft | 292 kts | 191° |
| 2026-05-05 03:05 | 35.89635 | -115.31751 | 10753 ft | 312 kts | 191° |
| 2026-05-05 03:05 | 35.87477 | -115.32285 | 11301 ft | 319 kts | 191° |
| 2026-05-05 03:05 | 35.85306 | -115.32821 | 11913 ft | 325 kts | 192° |
| 2026-05-05 03:05 | 35.83044 | -115.33376 | 12595 ft | 329 kts | 192° |
| 2026-05-05 03:06 | 35.80785 | -115.33929 | 13256 ft | 333 kts | 192° |
| 2026-05-05 03:06 | 35.78530 | -115.34483 | 13882 ft | 337 kts | 193° |
| 2026-05-05 03:06 | 35.76222 | -115.35050 | 14490 ft | 339 kts | 193° |
| 2026-05-05 03:06 | 35.73902 | -115.35619 | 15118 ft | 341 kts | 193° |
| 2026-05-05 03:07 | 35.71568 | -115.36191 | 15751 ft | 342 kts | 193° |
| 2026-05-05 03:07 | 35.69227 | -115.36763 | 16382 ft | 344 kts | 193° |
| 2026-05-05 03:07 | 35.66873 | -115.37336 | 17016 ft | 346 kts | 193° |
| 2026-05-05 03:07 | 35.64511 | -115.37911 | 17651 ft | 347 kts | 194° |
| 2026-05-05 03:08 | 35.62132 | -115.38486 | 18271 ft | 349 kts | 192° |
| 2026-05-05 03:08 | 35.59691 | -115.38710 | 18810 ft | 356 kts | 182° |
| 2026-05-05 03:08 | 35.57206 | -115.38532 | 19364 ft | 359 kts | 180° |
| 2026-05-05 03:08 | 35.54699 | -115.38344 | 19921 ft | 362 kts | 181° |
| 2026-05-05 03:09 | 35.52176 | -115.38158 | 20469 ft | 365 kts | 181° |
| 2026-05-05 03:09 | 35.49630 | -115.37974 | 20994 ft | 368 kts | 181° |
| 2026-05-05 03:09 | 35.47061 | -115.37807 | 21511 ft | 370 kts | 184° |
| 2026-05-05 03:09 | 35.44509 | -115.38063 | 21837 ft | 367 kts | 194° |
| 2026-05-05 03:10 | 35.42086 | -115.38936 | 21909 ft | 360 kts | 205° |
| 2026-05-05 03:10 | 35.39856 | -115.40301 | 21921 ft | 358 kts | 210° |
| 2026-05-05 03:10 | 35.37657 | -115.41725 | 21920 ft | 357 kts | 210° |
| 2026-05-05 03:10 | 35.35455 | -115.43140 | 21921 ft | 357 kts | 210° |
| 2026-05-05 03:11 | 35.33252 | -115.44547 | 21919 ft | 357 kts | 210° |
| 2026-05-05 03:11 | 35.31048 | -115.45955 | 21919 ft | 357 kts | 210° |
| 2026-05-05 03:11 | 35.28845 | -115.47360 | 21917 ft | 357 kts | 210° |
| 2026-05-05 03:11 | 35.26642 | -115.48763 | 21918 ft | 357 kts | 210° |
| 2026-05-05 03:12 | 35.24434 | -115.50170 | 21915 ft | 357 kts | 210° |
| 2026-05-05 03:12 | 35.22230 | -115.51574 | 21917 ft | 358 kts | 210° |
| 2026-05-05 03:12 | 35.20023 | -115.52980 | 21931 ft | 358 kts | 210° |
| 2026-05-05 03:12 | 35.17813 | -115.54387 | 21925 ft | 358 kts | 210° |
| 2026-05-05 03:13 | 35.15605 | -115.55791 | 21926 ft | 358 kts | 210° |
| 2026-05-05 03:13 | 35.13415 | -115.57237 | 21927 ft | 357 kts | 214° |
| 2026-05-05 03:13 | 35.11458 | -115.59087 | 21917 ft | 355 kts | 225° |
| 2026-05-05 03:13 | 35.09749 | -115.61257 | 21924 ft | 354 kts | 227° |
| 2026-05-05 03:14 | 35.08052 | -115.63440 | 21926 ft | 354 kts | 227° |
| 2026-05-05 03:14 | 35.06350 | -115.65618 | 21945 ft | 354 kts | 227° |
| 2026-05-05 03:14 | 35.04649 | -115.67791 | 21942 ft | 354 kts | 227° |
| 2026-05-05 03:14 | 35.02944 | -115.69969 | 21939 ft | 355 kts | 226° |
| 2026-05-05 03:15 | 35.01238 | -115.72143 | 21940 ft | 355 kts | 226° |
| 2026-05-05 03:15 | 34.99532 | -115.74315 | 21939 ft | 355 kts | 226° |
| 2026-05-05 03:15 | 34.97823 | -115.76489 | 21939 ft | 355 kts | 226° |
| 2026-05-05 03:15 | 34.96119 | -115.78661 | 21932 ft | 355 kts | 226° |
| 2026-05-05 03:16 | 34.94413 | -115.80836 | 21930 ft | 355 kts | 226° |
| 2026-05-05 03:16 | 34.92709 | -115.83009 | 21924 ft | 355 kts | 226° |
| 2026-05-05 03:16 | 34.91003 | -115.85181 | 21924 ft | 355 kts | 226° |
| 2026-05-05 03:16 | 34.89295 | -115.87351 | 21924 ft | 355 kts | 226° |
| 2026-05-05 03:17 | 34.87586 | -115.89516 | 21917 ft | 355 kts | 226° |
| 2026-05-05 03:17 | 34.85877 | -115.91684 | 21916 ft | 355 kts | 226° |
| 2026-05-05 03:17 | 34.84171 | -115.93850 | 21916 ft | 355 kts | 226° |
| 2026-05-05 03:17 | 34.82463 | -115.96017 | 21934 ft | 355 kts | 226° |
| 2026-05-05 03:18 | 34.80750 | -115.98185 | 21935 ft | 355 kts | 226° |
| 2026-05-05 03:18 | 34.79039 | -116.00349 | 21915 ft | 355 kts | 227° |
| 2026-05-05 03:18 | 34.77330 | -116.02510 | 21915 ft | 354 kts | 227° |
| 2026-05-05 03:18 | 34.75626 | -116.04670 | 21915 ft | 353 kts | 226° |
| 2026-05-05 03:19 | 34.72236 | -116.08989 | 21916 ft | 353 kts | 227° |
| 2026-05-05 03:19 | 34.70529 | -116.11197 | 20954 ft | 362 kts | 227° |
| 2026-05-05 03:19 | 34.68851 | -116.13289 | 21635 ft | 339 kts | 226° |
| 2026-05-05 03:20 | 34.67183 | -116.15375 | 21656 ft | 348 kts | 226° |
| 2026-05-05 03:20 | 34.65505 | -116.17510 | 21659 ft | 350 kts | 227° |
| 2026-05-05 03:20 | 34.63831 | -116.19656 | 21660 ft | 351 kts | 227° |
| 2026-05-05 03:20 | 34.62154 | -116.21806 | 21660 ft | 351 kts | 227° |
| 2026-05-05 03:21 | 34.60476 | -116.23951 | 21658 ft | 350 kts | 227° |
| 2026-05-05 03:21 | 34.58794 | -116.26093 | 21674 ft | 350 kts | 226° |
| 2026-05-05 03:21 | 34.57677 | -116.27509 | 21665 ft | 351 kts | 226° |
| 2026-05-05 03:21 | 34.55988 | -116.29647 | 21660 ft | 351 kts | 226° |
| 2026-05-05 03:22 | 34.54297 | -116.31785 | 21664 ft | 351 kts | 226° |
| 2026-05-05 03:22 | 34.52610 | -116.33922 | 21661 ft | 351 kts | 226° |
| 2026-05-05 03:22 | 34.50921 | -116.36058 | 21662 ft | 351 kts | 226° |
| 2026-05-05 03:22 | 34.49229 | -116.38193 | 21663 ft | 351 kts | 226° |
| 2026-05-05 03:23 | 34.47540 | -116.40322 | 21652 ft | 351 kts | 226° |
| 2026-05-05 03:23 | 34.45850 | -116.42449 | 21662 ft | 349 kts | 226° |
| 2026-05-05 03:23 | 34.44165 | -116.44569 | 21664 ft | 349 kts | 226° |
| 2026-05-05 03:23 | 34.42494 | -116.46704 | 21659 ft | 349 kts | 230° |
| 2026-05-05 03:24 | 34.41105 | -116.49111 | 21662 ft | 350 kts | 240° |
| 2026-05-05 03:24 | 34.40012 | -116.51744 | 21674 ft | 350 kts | 242° |
| 2026-05-05 03:24 | 34.38930 | -116.54387 | 21673 ft | 350 kts | 242° |
| 2026-05-05 03:24 | 34.37847 | -116.57028 | 21681 ft | 350 kts | 242° |
| 2026-05-05 03:25 | 34.36758 | -116.59673 | 21673 ft | 352 kts | 242° |
| 2026-05-05 03:25 | 34.35662 | -116.62327 | 21671 ft | 353 kts | 242° |
| 2026-05-05 03:25 | 34.34565 | -116.64986 | 21691 ft | 353 kts | 242° |
| 2026-05-05 03:25 | 34.33470 | -116.67642 | 21693 ft | 353 kts | 242° |
| 2026-05-05 03:26 | 34.32379 | -116.70305 | 21690 ft | 353 kts | 242° |
| 2026-05-05 03:26 | 34.31299 | -116.72974 | 21687 ft | 354 kts | 242° |
| 2026-05-05 03:26 | 34.30224 | -116.75652 | 21721 ft | 354 kts | 242° |
| 2026-05-05 03:26 | 34.29337 | -116.77898 | 20426 ft | 372 kts | 244° |
| 2026-05-05 03:27 | 34.28224 | -116.80747 | 20101 ft | 367 kts | 242° |
| 2026-05-05 03:27 | 34.27141 | -116.83467 | 20101 ft | 353 kts | 242° |
| 2026-05-05 03:27 | 34.26067 | -116.86124 | 20103 ft | 351 kts | 242° |
| 2026-05-05 03:27 | 34.24990 | -116.88763 | 20126 ft | 351 kts | 242° |
| 2026-05-05 03:28 | 34.23908 | -116.91408 | 20126 ft | 351 kts | 242° |
| 2026-05-05 03:28 | 34.22843 | -116.94017 | 20126 ft | 351 kts | 242° |
| 2026-05-05 03:28 | 34.21767 | -116.96666 | 20125 ft | 351 kts | 242° |
| 2026-05-05 03:28 | 34.20806 | -116.99395 | 20142 ft | 353 kts | 249° |
| 2026-05-05 03:29 | 34.20053 | -117.02218 | 20141 ft | 353 kts | 249° |
| 2026-05-05 03:29 | 34.19294 | -117.05054 | 20145 ft | 354 kts | 249° |
| 2026-05-05 03:29 | 34.18537 | -117.07860 | 19962 ft | 347 kts | 249° |
| 2026-05-05 03:29 | 34.17795 | -117.10597 | 19719 ft | 339 kts | 249° |
| 2026-05-05 03:30 | 34.17066 | -117.13270 | 19485 ft | 332 kts | 249° |
| 2026-05-05 03:30 | 34.16347 | -117.15907 | 19248 ft | 330 kts | 249° |
| 2026-05-05 03:30 | 34.15627 | -117.18534 | 19031 ft | 328 kts | 249° |
| 2026-05-05 03:30 | 34.14911 | -117.21133 | 18837 ft | 326 kts | 249° |
| 2026-05-05 03:31 | 34.14196 | -117.23720 | 18584 ft | 322 kts | 249° |
| 2026-05-05 03:31 | 34.13487 | -117.26284 | 18164 ft | 322 kts | 249° |
| 2026-05-05 03:31 | 34.12780 | -117.28848 | 17712 ft | 322 kts | 249° |
| 2026-05-05 03:31 | 34.12084 | -117.31374 | 17271 ft | 320 kts | 249° |
| 2026-05-05 03:32 | 34.11381 | -117.33919 | 16829 ft | 319 kts | 249° |
| 2026-05-05 03:32 | 34.10680 | -117.36451 | 16325 ft | 318 kts | 249° |
| 2026-05-05 03:32 | 34.10001 | -117.38965 | 15746 ft | 315 kts | 250° |
| 2026-05-05 03:32 | 34.09361 | -117.41489 | 15170 ft | 314 kts | 251° |
| 2026-05-05 03:33 | 34.08741 | -117.44011 | 14606 ft | 313 kts | 252° |
| 2026-05-05 03:33 | 34.08128 | -117.46516 | 14022 ft | 311 kts | 252° |
| 2026-05-05 03:33 | 34.07516 | -117.49004 | 13403 ft | 308 kts | 252° |
| 2026-05-05 03:33 | 34.07038 | -117.51509 | 12935 ft | 306 kts | 258° |
| 2026-05-05 03:34 | 34.06629 | -117.54022 | 12676 ft | 305 kts | 257° |
| 2026-05-05 03:34 | 34.06208 | -117.56519 | 12420 ft | 303 kts | 257° |
| 2026-05-05 03:34 | 34.05784 | -117.59008 | 12161 ft | 302 kts | 257° |
| 2026-05-05 03:34 | 34.05365 | -117.61476 | 11782 ft | 299 kts | 257° |
| 2026-05-05 03:35 | 34.04948 | -117.63927 | 11395 ft | 297 kts | 257° |
| 2026-05-05 03:35 | 34.04533 | -117.66354 | 11029 ft | 295 kts | 257° |
| 2026-05-05 03:35 | 34.04122 | -117.68771 | 10640 ft | 293 kts | 257° |
| 2026-05-05 03:35 | 34.03717 | -117.71159 | 10387 ft | 287 kts | 257° |
| 2026-05-05 03:36 | 34.03324 | -117.73474 | 10275 ft | 277 kts | 257° |
| 2026-05-05 03:36 | 34.02939 | -117.75736 | 9789 ft | 280 kts | 258° |
| 2026-05-05 03:36 | 34.02541 | -117.78064 | 9336 ft | 282 kts | 258° |
| 2026-05-05 03:36 | 34.02141 | -117.80399 | 8727 ft | 288 kts | 258° |
| 2026-05-05 03:37 | 34.01740 | -117.82737 | 8421 ft | 283 kts | 258° |
| 2026-05-05 03:37 | 34.01340 | -117.85066 | 7967 ft | 284 kts | 258° |
| 2026-05-05 03:37 | 34.00939 | -117.87406 | 7486 ft | 286 kts | 258° |
| 2026-05-05 03:37 | 34.00541 | -117.89730 | 7002 ft | 288 kts | 258° |
| 2026-05-05 03:38 | 34.00135 | -117.92102 | 6504 ft | 290 kts | 258° |
| 2026-05-05 03:38 | 33.99727 | -117.94485 | 5996 ft | 291 kts | 258° |
| 2026-05-05 03:38 | 33.99315 | -117.96880 | 5485 ft | 292 kts | 258° |
| 2026-05-05 03:38 | 33.98901 | -117.99282 | 4987 ft | 293 kts | 258° |
| 2026-05-05 03:39 | 33.98487 | -118.01681 | 4455 ft | 288 kts | 258° |
| 2026-05-05 03:39 | 33.98090 | -118.03986 | 4170 ft | 270 kts | 258° |
| 2026-05-05 03:39 | 33.97722 | -118.06108 | 4103 ft | 246 kts | 258° |
| 2026-05-05 03:39 | 33.97388 | -118.08036 | 4035 ft | 224 kts | 258° |
| 2026-05-05 03:40 | 33.97082 | -118.09797 | 3945 ft | 206 kts | 258° |
| 2026-05-05 03:40 | 33.96798 | -118.11431 | 3866 ft | 195 kts | 258° |
| 2026-05-05 03:40 | 33.96452 | -118.12994 | 3784 ft | 192 kts | 256° |
| 2026-05-05 03:40 | 33.96172 | -118.14569 | 3708 ft | 193 kts | 260° |
| 2026-05-05 03:41 | 33.95978 | -118.16160 | 3618 ft | 190 kts | 262° |
| 2026-05-05 03:41 | 33.95811 | -118.17744 | 3419 ft | 191 kts | 263° |
| 2026-05-05 03:41 | 33.95651 | -118.19319 | 3172 ft | 185 kts | 262° |
| 2026-05-05 03:41 | 33.95500 | -118.20822 | 2916 ft | 175 kts | 263° |
| 2026-05-05 03:42 | 33.95361 | -118.22234 | 2661 ft | 166 kts | 263° |
| 2026-05-05 03:42 | 33.95230 | -118.23569 | 2408 ft | 158 kts | 262° |
| 2026-05-05 03:42 | 33.95089 | -118.24839 | 2167 ft | 149 kts | 261° |
| 2026-05-05 03:42 | 33.94942 | -118.26041 | 1941 ft | 143 kts | 262° |
| 2026-05-05 03:43 | 33.94859 | -118.27210 | 1726 ft | 136 kts | 262° |
| 2026-05-05 03:43 | 33.94741 | -118.28353 | 1514 ft | 139 kts | 261° |
| 2026-05-05 03:43 | 33.94619 | -118.29491 | 1389 ft | 137 kts | 262° |
| 2026-05-05 03:43 | 33.94507 | -118.30643 | 1218 ft | 139 kts | 262° |
| 2026-05-05 03:44 | 33.94392 | -118.31799 | 1097 ft | 139 kts | 264° |
| 2026-05-05 03:44 | 33.94289 | -118.32953 | 866 ft | 137 kts | 262° |
| 2026-05-05 03:44 | 33.94161 | -118.34082 | 719 ft | 136 kts | 260° |
| 2026-05-05 03:44 | 33.94044 | -118.35214 | 541 ft | 136 kts | 258° |
| 2026-05-05 03:45 | 33.93928 | -118.36360 | 379 ft | 140 kts | 261° |
| 2026-05-05 03:45 | 33.93817 | -118.37511 | 238 ft | 138 kts | 261° |
| 2026-05-05 03:45 | 33.93697 | -118.38662 | 104 ft | 138 kts | 261° |
| 2026-05-05 03:45 | 33.93603 | -118.39573 | 95 ft | 69 kts | 263° |
| 2026-05-05 03:46 | 33.93556 | -118.39996 | 96 ft | 48 kts | 261° |
| 2026-05-05 03:46 | 33.93522 | -118.40378 | 97 ft | 41 kts | 272° |
| 2026-05-05 03:46 | 33.93581 | -118.40612 | 96 ft | 17 kts | 296° |
| 2026-05-05 03:46 | 33.93595 | -118.40758 | 96 ft | 19 kts | 268° |
| 2026-05-05 03:47 | 33.93641 | -118.40888 | 98 ft | 16 kts | 340° |
| 2026-05-05 03:47 | 33.93758 | -118.40903 | 94 ft | 18 kts | 19° |
| 2026-05-05 03:47 | 33.93799 | -118.40796 | 96 ft | 14 kts | 78° |
| 2026-05-05 03:47 | 33.93864 | -118.40729 | 95 ft | 11 kts | 28° |
| 2026-05-05 03:48 | 33.93895 | -118.40638 | 93 ft | 13 kts | 84° |
| 2026-05-05 03:48 | 33.93906 | -118.40525 | 94 ft | 15 kts | 82° |
| 2026-05-05 03:48 | 33.93917 | -118.40435 | 94 ft | 9 kts | 82° |
| 2026-05-05 03:48 | 33.93927 | -118.40355 | 94 ft | 11 kts | 82° |
| 2026-05-05 03:49 | 33.93979 | -118.40301 | 95 ft | 12 kts | 352° |
| 2026-05-05 03:49 | 33.94068 | -118.40319 | 93 ft | 10 kts | 353° |
| 2026-05-05 03:49 | 33.94100 | -118.40339 | 95 ft | 3 kts | 269° |
| 2026-05-05 03:49 | 33.94098 | -118.40355 | 93 ft | 1 kts | 259° |
| 2026-05-05 03:50 | 33.94097 | -118.40365 | 94 ft | 1 kts | 262° |
| 2026-05-05 03:50 | 33.94095 | -118.40379 | 93 ft | 0 kts | 261° |